sensor_id;sensor_type;location;lat;lon;timestamp;pressure;altitude;pressure_sealevel;temperature;humidity
57600;BME280;43426;43.594;24.334;2023-04-22T00:01:56;100862.22;;;12.13;96.34
57600;BME280;43426;43.594;24.334;2023-04-22T00:04:21;100861.94;;;12.07;96.79
57600;BME280;43426;43.594;24.334;2023-04-22T00:06:47;100862.44;;;12.03;96.62
57600;BME280;43426;43.594;24.334;2023-04-22T00:09:12;100851.34;;;11.98;96.65
57600;BME280;43426;43.594;24.334;2023-04-22T00:11:37;100852.84;;;11.92;96.52
57600;BME280;43426;43.594;24.334;2023-04-22T00:14:03;100862.09;;;11.66;97.98
57600;BME280;43426;43.594;24.334;2023-04-22T00:16:28;100843.97;;;11.35;99.79
57600;BME280;43426;43.594;24.334;2023-04-22T00:18:54;100827.44;;;11.30;99.55
57600;BME280;43426;43.594;24.334;2023-04-22T00:21:19;100859.97;;;11.45;99.57
57600;BME280;43426;43.594;24.334;2023-04-22T00:23:44;100839.81;;;11.16;99.04
57600;BME280;43426;43.594;24.334;2023-04-22T00:26:11;100876.25;;;11.20;99.70
57600;BME280;43426;43.594;24.334;2023-04-22T00:28:36;100867.16;;;11.13;99.87
57600;BME280;43426;43.594;24.334;2023-04-22T00:31:02;100863.94;;;11.10;100.00
57600;BME280;43426;43.594;24.334;2023-04-22T00:33:29;100860.56;;;11.07;98.23
57600;BME280;43426;43.594;24.334;2023-04-22T00:35:54;100849.66;;;10.76;99.33
57600;BME280;43426;43.594;24.334;2023-04-22T00:38:20;100853.53;;;10.65;100.00
57600;BME280;43426;43.594;24.334;2023-04-22T00:40:46;100854.88;;;10.69;100.00
57600;BME280;43426;43.594;24.334;2023-04-22T00:43:12;100854.69;;;10.54;100.00
57600;BME280;43426;43.594;24.334;2023-04-22T00:45:38;100869.03;;;10.71;100.00
57600;BME280;43426;43.594;24.334;2023-04-22T00:48:04;100839.84;;;10.50;100.00
57600;BME280;43426;43.594;24.334;2023-04-22T00:50:30;100855.22;;;10.58;100.00
57600;BME280;43426;43.594;24.334;2023-04-22T00:52:56;100862.97;;;10.69;100.00
57600;BME280;43426;43.594;24.334;2023-04-22T00:55:21;100875.78;;;10.59;100.00
57600;BME280;43426;43.594;24.334;2023-04-22T00:57:50;100872.56;;;10.39;100.00
57600;BME280;43426;43.594;24.334;2023-04-22T01:00:16;100879.59;;;10.32;100.00
57600;BME280;43426;43.594;24.334;2023-04-22T01:02:44;100869.28;;;10.27;100.00
57600;BME280;43426;43.594;24.334;2023-04-22T01:05:10;100876.38;;;10.28;100.00
57600;BME280;43426;43.594;24.334;2023-04-22T01:07:35;100886.38;;;10.36;100.00
57600;BME280;43426;43.594;24.334;2023-04-22T01:10:02;100871.16;;;10.18;100.00
57600;BME280;43426;43.594;24.334;2023-04-22T01:12:28;100883.13;;;10.32;100.00
57600;BME280;43426;43.594;24.334;2023-04-22T01:14:54;100879.44;;;10.33;100.00
57600;BME280;43426;43.594;24.334;2023-04-22T01:17:20;100853.28;;;10.17;100.00
57600;BME280;43426;43.594;24.334;2023-04-22T01:19:47;100858.84;;;10.24;100.00
57600;BME280;43426;43.594;24.334;2023-04-22T01:22:13;100880.78;;;10.29;100.00
57600;BME280;43426;43.594;24.334;2023-04-22T01:24:39;100890.22;;;10.33;100.00
57600;BME280;43426;43.594;24.334;2023-04-22T01:27:05;100883.28;;;10.22;100.00
57600;BME280;43426;43.594;24.334;2023-04-22T01:29:31;100887.50;;;10.25;100.00
57600;BME280;43426;43.594;24.334;2023-04-22T01:31:57;100860.00;;;10.13;100.00
57600;BME280;43426;43.594;24.334;2023-04-22T01:34:22;100875.50;;;10.11;100.00
57600;BME280;43426;43.594;24.334;2023-04-22T01:36:49;100863.47;;;9.81;100.00
57600;BME280;43426;43.594;24.334;2023-04-22T01:39:14;100880.66;;;9.88;100.00
57600;BME280;43426;43.594;24.334;2023-04-22T01:41:40;100876.25;;;9.79;100.00
57600;BME280;43426;43.594;24.334;2023-04-22T01:44:05;100856.88;;;9.75;100.00
57600;BME280;43426;43.594;24.334;2023-04-22T01:46:32;100883.56;;;9.95;100.00
57600;BME280;43426;43.594;24.334;2023-04-22T01:48:57;100873.25;;;9.82;100.00
57600;BME280;43426;43.594;24.334;2023-04-22T01:51:23;100867.78;;;9.65;100.00
57600;BME280;43426;43.594;24.334;2023-04-22T01:53:49;100856.56;;;9.44;100.00
57600;BME280;43426;43.594;24.334;2023-04-22T01:56:15;100886.41;;;9.50;100.00
57600;BME280;43426;43.594;24.334;2023-04-22T01:58:41;100883.03;;;9.57;100.00
57600;BME280;43426;43.594;24.334;2023-04-22T02:01:08;100887.78;;;9.54;100.00
57600;BME280;43426;43.594;24.334;2023-04-22T02:03:34;100857.00;;;9.31;100.00
57600;BME280;43426;43.594;24.334;2023-04-22T02:06:00;100867.13;;;9.37;100.00
57600;BME280;43426;43.594;24.334;2023-04-22T02:08:25;100881.47;;;9.37;100.00
57600;BME280;43426;43.594;24.334;2023-04-22T02:10:50;100886.03;;;9.45;100.00
57600;BME280;43426;43.594;24.334;2023-04-22T02:13:16;100875.41;;;9.44;100.00
57600;BME280;43426;43.594;24.334;2023-04-22T02:15:41;100837.63;;;9.27;100.00
57600;BME280;43426;43.594;24.334;2023-04-22T02:18:07;100858.75;;;9.48;100.00
57600;BME280;43426;43.594;24.334;2023-04-22T02:20:34;100846.94;;;9.41;100.00
57600;BME280;43426;43.594;24.334;2023-04-22T02:23:00;100841.28;;;9.44;100.00
57600;BME280;43426;43.594;24.334;2023-04-22T02:25:27;100854.94;;;9.59;100.00
57600;BME280;43426;43.594;24.334;2023-04-22T02:27:52;100849.06;;;9.56;100.00
57600;BME280;43426;43.594;24.334;2023-04-22T02:30:18;100850.75;;;9.65;100.00
57600;BME280;43426;43.594;24.334;2023-04-22T02:32:43;100825.59;;;9.48;100.00
57600;BME280;43426;43.594;24.334;2023-04-22T02:35:09;100856.84;;;9.67;100.00
57600;BME280;43426;43.594;24.334;2023-04-22T02:37:35;100877.56;;;9.75;100.00
57600;BME280;43426;43.594;24.334;2023-04-22T02:40:01;100848.44;;;9.70;100.00
57600;BME280;43426;43.594;24.334;2023-04-22T02:42:26;100859.56;;;9.75;100.00
57600;BME280;43426;43.594;24.334;2023-04-22T02:44:52;100847.44;;;9.71;100.00
57600;BME280;43426;43.594;24.334;2023-04-22T02:47:17;100872.38;;;9.81;100.00
57600;BME280;43426;43.594;24.334;2023-04-22T02:49:42;100840.84;;;9.65;100.00
57600;BME280;43426;43.594;24.334;2023-04-22T02:52:08;100870.59;;;9.98;100.00
57600;BME280;43426;43.594;24.334;2023-04-22T02:54:33;100842.56;;;9.83;100.00
57600;BME280;43426;43.594;24.334;2023-04-22T02:56:58;100842.06;;;9.79;100.00
57600;BME280;43426;43.594;24.334;2023-04-22T02:59:24;100867.88;;;9.90;100.00
57600;BME280;43426;43.594;24.334;2023-04-22T03:01:49;100862.47;;;9.82;100.00
57600;BME280;43426;43.594;24.334;2023-04-22T03:04:14;100876.13;;;9.88;100.00
57600;BME280;43426;43.594;24.334;2023-04-22T03:06:40;100857.69;;;9.67;100.00
57600;BME280;43426;43.594;24.334;2023-04-22T03:09:05;100817.38;;;9.49;100.00
57600;BME280;43426;43.594;24.334;2023-04-22T03:11:31;100873.94;;;9.92;100.00
57600;BME280;43426;43.594;24.334;2023-04-22T03:13:56;100870.91;;;9.95;100.00
57600;BME280;43426;43.594;24.334;2023-04-22T03:16:22;100879.00;;;9.95;100.00
57600;BME280;43426;43.594;24.334;2023-04-22T03:18:48;100868.53;;;9.84;100.00
57600;BME280;43426;43.594;24.334;2023-04-22T03:21:16;100859.25;;;9.78;100.00
57600;BME280;43426;43.594;24.334;2023-04-22T03:23:41;100880.69;;;9.96;100.00
57600;BME280;43426;43.594;24.334;2023-04-22T03:26:07;100872.47;;;10.06;100.00
57600;BME280;43426;43.594;24.334;2023-04-22T03:28:32;100852.00;;;9.87;100.00
57600;BME280;43426;43.594;24.334;2023-04-22T03:31:00;100849.28;;;9.79;100.00
57600;BME280;43426;43.594;24.334;2023-04-22T03:33:26;100884.63;;;10.18;100.00
57600;BME280;43426;43.594;24.334;2023-04-22T03:35:51;100883.78;;;10.18;100.00
57600;BME280;43426;43.594;24.334;2023-04-22T03:38:19;100873.31;;;10.07;100.00
57600;BME280;43426;43.594;24.334;2023-04-22T03:40:44;100862.34;;;10.00;100.00
57600;BME280;43426;43.594;24.334;2023-04-22T03:43:09;100866.19;;;9.89;100.00
57600;BME280;43426;43.594;24.334;2023-04-22T03:45:35;100893.53;;;10.02;100.00
57600;BME280;43426;43.594;24.334;2023-04-22T03:48:01;100871.56;;;9.89;100.00
57600;BME280;43426;43.594;24.334;2023-04-22T03:50:26;100905.66;;;9.98;100.00
57600;BME280;43426;43.594;24.334;2023-04-22T03:52:51;100854.13;;;9.59;100.00
57600;BME280;43426;43.594;24.334;2023-04-22T03:55:17;100886.53;;;9.75;100.00
57600;BME280;43426;43.594;24.334;2023-04-22T03:57:42;100909.94;;;9.83;100.00
57600;BME280;43426;43.594;24.334;2023-04-22T04:00:08;100912.00;;;9.89;100.00
57600;BME280;43426;43.594;24.334;2023-04-22T04:02:34;100909.81;;;9.93;100.00
57600;BME280;43426;43.594;24.334;2023-04-22T04:05:01;100893.47;;;9.86;100.00
57600;BME280;43426;43.594;24.334;2023-04-22T04:07:27;100918.78;;;10.01;100.00
57600;BME280;43426;43.594;24.334;2023-04-22T04:09:52;100892.81;;;9.92;100.00
57600;BME280;43426;43.594;24.334;2023-04-22T04:12:18;100919.28;;;10.05;100.00
57600;BME280;43426;43.594;24.334;2023-04-22T04:14:43;100901.94;;;10.08;100.00
57600;BME280;43426;43.594;24.334;2023-04-22T04:17:09;100907.88;;;10.11;100.00
57600;BME280;43426;43.594;24.334;2023-04-22T04:19:35;100928.09;;;10.15;100.00
57600;BME280;43426;43.594;24.334;2023-04-22T04:22:01;100910.72;;;10.10;100.00
57600;BME280;43426;43.594;24.334;2023-04-22T04:24:29;100925.91;;;10.19;100.00
57600;BME280;43426;43.594;24.334;2023-04-22T04:26:55;100914.63;;;10.15;100.00
57600;BME280;43426;43.594;24.334;2023-04-22T04:29:22;100944.66;;;10.29;100.00
57600;BME280;43426;43.594;24.334;2023-04-22T04:31:48;100924.91;;;10.20;100.00
57600;BME280;43426;43.594;24.334;2023-04-22T04:34:13;100948.44;;;10.36;100.00
57600;BME280;43426;43.594;24.334;2023-04-22T04:36:39;100941.53;;;10.42;100.00
57600;BME280;43426;43.594;24.334;2023-04-22T04:39:05;100943.53;;;10.48;100.00
57600;BME280;43426;43.594;24.334;2023-04-22T04:41:30;100956.03;;;10.49;100.00
57600;BME280;43426;43.594;24.334;2023-04-22T04:43:57;100957.38;;;10.45;100.00
57600;BME280;43426;43.594;24.334;2023-04-22T04:46:25;100977.78;;;10.47;100.00
57600;BME280;43426;43.594;24.334;2023-04-22T04:48:50;100976.09;;;10.46;100.00
57600;BME280;43426;43.594;24.334;2023-04-22T04:51:18;100962.34;;;10.31;100.00
57600;BME280;43426;43.594;24.334;2023-04-22T04:53:43;100954.00;;;10.34;100.00
57600;BME280;43426;43.594;24.334;2023-04-22T04:56:09;100967.50;;;10.43;100.00
57600;BME280;43426;43.594;24.334;2023-04-22T04:58:34;100958.66;;;10.32;100.00
57600;BME280;43426;43.594;24.334;2023-04-22T05:01:00;100983.72;;;10.51;100.00
57600;BME280;43426;43.594;24.334;2023-04-22T05:03:25;100966.28;;;10.37;100.00
57600;BME280;43426;43.594;24.334;2023-04-22T05:05:50;100949.53;;;10.25;100.00
57600;BME280;43426;43.594;24.334;2023-04-22T05:08:16;100959.31;;;10.26;100.00
57600;BME280;43426;43.594;24.334;2023-04-22T05:10:42;100965.38;;;10.28;100.00
57600;BME280;43426;43.594;24.334;2023-04-22T05:13:08;100966.09;;;10.30;100.00
57600;BME280;43426;43.594;24.334;2023-04-22T05:15:35;100962.78;;;10.45;100.00
57600;BME280;43426;43.594;24.334;2023-04-22T05:18:00;100988.47;;;10.73;100.00
57600;BME280;43426;43.594;24.334;2023-04-22T05:20:26;100977.34;;;10.77;100.00
57600;BME280;43426;43.594;24.334;2023-04-22T05:22:51;100948.00;;;10.73;100.00
57600;BME280;43426;43.594;24.334;2023-04-22T05:25:17;100967.06;;;10.97;100.00
57600;BME280;43426;43.594;24.334;2023-04-22T05:27:42;100985.47;;;11.26;100.00
57600;BME280;43426;43.594;24.334;2023-04-22T05:30:08;100960.47;;;11.07;100.00
57600;BME280;43426;43.594;24.334;2023-04-22T05:32:33;100998.47;;;11.22;100.00
57600;BME280;43426;43.594;24.334;2023-04-22T05:34:59;100990.00;;;11.25;100.00
57600;BME280;43426;43.594;24.334;2023-04-22T05:37:24;100997.28;;;11.41;100.00
57600;BME280;43426;43.594;24.334;2023-04-22T05:39:50;101004.53;;;11.49;100.00
57600;BME280;43426;43.594;24.334;2023-04-22T05:42:15;101009.75;;;11.59;100.00
57600;BME280;43426;43.594;24.334;2023-04-22T05:44:41;100995.41;;;11.50;100.00
57600;BME280;43426;43.594;24.334;2023-04-22T05:47:06;101009.75;;;11.59;100.00
57600;BME280;43426;43.594;24.334;2023-04-22T05:49:31;101011.44;;;11.52;100.00
57600;BME280;43426;43.594;24.334;2023-04-22T05:51:57;101019.34;;;11.70;100.00
57600;BME280;43426;43.594;24.334;2023-04-22T05:54:22;101036.22;;;11.88;100.00
57600;BME280;43426;43.594;24.334;2023-04-22T05:56:47;101013.59;;;11.89;100.00
57600;BME280;43426;43.594;24.334;2023-04-22T05:59:13;101014.78;;;11.95;100.00
57600;BME280;43426;43.594;24.334;2023-04-22T06:01:38;101053.59;;;12.19;100.00
57600;BME280;43426;43.594;24.334;2023-04-22T06:04:04;101052.25;;;12.15;100.00
57600;BME280;43426;43.594;24.334;2023-04-22T06:06:30;101036.41;;;12.03;99.78
57600;BME280;43426;43.594;24.334;2023-04-22T06:08:56;101058.31;;;12.17;100.00
57600;BME280;43426;43.594;24.334;2023-04-22T06:11:22;101047.53;;;11.92;100.00
57600;BME280;43426;43.594;24.334;2023-04-22T06:13:47;101066.00;;;11.97;100.00
57600;BME280;43426;43.594;24.334;2023-04-22T06:16:12;101066.16;;;11.87;100.00
57600;BME280;43426;43.594;24.334;2023-04-22T06:18:38;101052.28;;;11.82;100.00
57600;BME280;43426;43.594;24.334;2023-04-22T06:21:03;101047.22;;;12.03;100.00
57600;BME280;43426;43.594;24.334;2023-04-22T06:23:29;101056.63;;;12.24;99.69
57600;BME280;43426;43.594;24.334;2023-04-22T06:25:54;101000.19;;;12.04;97.58
57600;BME280;43426;43.594;24.334;2023-04-22T06:28:20;101055.78;;;12.63;97.63
57600;BME280;43426;43.594;24.334;2023-04-22T06:30:45;101050.59;;;12.76;96.19
57600;BME280;43426;43.594;24.334;2023-04-22T06:33:11;101073.88;;;12.94;96.50
57600;BME280;43426;43.594;24.334;2023-04-22T06:35:36;101069.19;;;12.88;95.87
57600;BME280;43426;43.594;24.334;2023-04-22T06:38:02;101058.13;;;12.66;97.36
57600;BME280;43426;43.594;24.334;2023-04-22T06:40:27;101053.63;;;12.82;97.43
57600;BME280;43426;43.594;24.334;2023-04-22T06:42:53;101079.78;;;13.21;94.93
57600;BME280;43426;43.594;24.334;2023-04-22T06:45:18;101090.28;;;13.24;95.54
57600;BME280;43426;43.594;24.334;2023-04-22T06:47:44;101084.81;;;13.32;96.23
57600;BME280;43426;43.594;24.334;2023-04-22T06:50:09;101074.66;;;13.57;92.76
57600;BME280;43426;43.594;24.334;2023-04-22T06:52:35;101084.50;;;13.73;93.77
57600;BME280;43426;43.594;24.334;2023-04-22T06:55:01;101061.69;;;13.83;94.14
57600;BME280;43426;43.594;24.334;2023-04-22T06:57:29;101090.75;;;14.27;89.84
57600;BME280;43426;43.594;24.334;2023-04-22T06:59:55;101081.38;;;14.14;90.58
57600;BME280;43426;43.594;24.334;2023-04-22T07:02:20;101087.56;;;14.08;92.65
57600;BME280;43426;43.594;24.334;2023-04-22T07:04:46;101080.16;;;14.02;92.62
57600;BME280;43426;43.594;24.334;2023-04-22T07:07:12;101080.91;;;14.26;92.47
57600;BME280;43426;43.594;24.334;2023-04-22T07:09:37;101091.00;;;14.62;89.23
57600;BME280;43426;43.594;24.334;2023-04-22T07:12:03;101088.41;;;14.39;90.48
57600;BME280;43426;43.594;24.334;2023-04-22T07:14:28;101061.91;;;14.26;92.65
57600;BME280;43426;43.594;24.334;2023-04-22T07:16:54;101095.41;;;14.78;88.41
57600;BME280;43426;43.594;24.334;2023-04-22T07:19:20;101088.88;;;14.72;89.56
57600;BME280;43426;43.594;24.334;2023-04-22T07:21:45;101072.84;;;14.77;88.36
57600;BME280;43426;43.594;24.334;2023-04-22T07:24:10;101097.72;;;14.96;88.60
57600;BME280;43426;43.594;24.334;2023-04-22T07:26:41;101099.41;;;14.97;82.43
57600;BME280;43426;43.594;24.334;2023-04-22T07:29:09;101084.44;;;14.86;78.70
57600;BME280;43426;43.594;24.334;2023-04-22T07:31:37;101096.63;;;14.90;78.18
57600;BME280;43426;43.594;24.334;2023-04-22T07:34:02;101107.00;;;14.87;79.16
57600;BME280;43426;43.594;24.334;2023-04-22T07:36:28;101083.16;;;14.67;77.36
57600;BME280;43426;43.594;24.334;2023-04-22T07:38:53;101111.81;;;14.70;79.35
57600;BME280;43426;43.594;24.334;2023-04-22T07:41:19;101106.88;;;14.73;79.78
57600;BME280;43426;43.594;24.334;2023-04-22T07:43:44;101111.03;;;14.76;77.33
57600;BME280;43426;43.594;24.334;2023-04-22T07:46:09;101109.94;;;14.70;77.23
57600;BME280;43426;43.594;24.334;2023-04-22T07:48:35;101106.56;;;14.53;76.72
57600;BME280;43426;43.594;24.334;2023-04-22T07:51:01;101101.13;;;14.38;77.43
57600;BME280;43426;43.594;24.334;2023-04-22T07:53:26;101105.16;;;14.42;76.10
57600;BME280;43426;43.594;24.334;2023-04-22T07:55:51;101122.56;;;14.48;76.37
57600;BME280;43426;43.594;24.334;2023-04-22T07:58:17;101115.66;;;14.45;76.45
57600;BME280;43426;43.594;24.334;2023-04-22T08:00:42;101119.22;;;14.46;77.10
57600;BME280;43426;43.594;24.334;2023-04-22T08:03:07;101112.47;;;14.57;77.11
57600;BME280;43426;43.594;24.334;2023-04-22T08:05:33;101094.00;;;14.52;77.31
57600;BME280;43426;43.594;24.334;2023-04-22T08:07:58;101113.97;;;14.74;78.94
57600;BME280;43426;43.594;24.334;2023-04-22T08:10:24;101107.78;;;14.80;76.25
57600;BME280;43426;43.594;24.334;2023-04-22T08:12:49;101115.16;;;14.87;75.22
57600;BME280;43426;43.594;24.334;2023-04-22T08:15:15;101117.97;;;14.93;76.24
57600;BME280;43426;43.594;24.334;2023-04-22T08:17:40;101108.97;;;14.93;77.15
57600;BME280;43426;43.594;24.334;2023-04-22T08:20:06;101121.56;;;15.15;76.10
57600;BME280;43426;43.594;24.334;2023-04-22T08:22:31;101091.16;;;15.05;74.78
57600;BME280;43426;43.594;24.334;2023-04-22T08:24:58;101118.81;;;15.30;75.74
57600;BME280;43426;43.594;24.334;2023-04-22T08:27:24;101118.28;;;15.42;74.35
57600;BME280;43426;43.594;24.334;2023-04-22T08:29:51;101106.13;;;15.59;73.32
57600;BME280;43426;43.594;24.334;2023-04-22T08:32:17;101123.53;;;15.87;71.44
57600;BME280;43426;43.594;24.334;2023-04-22T08:34:45;101112.31;;;15.96;71.68
57600;BME280;43426;43.594;24.334;2023-04-22T08:37:10;101122.50;;;16.16;69.30
57600;BME280;43426;43.594;24.334;2023-04-22T08:39:36;101123.50;;;16.43;69.86
57600;BME280;43426;43.594;24.334;2023-04-22T08:42:01;101123.25;;;16.73;68.73
57600;BME280;43426;43.594;24.334;2023-04-22T08:44:27;101132.22;;;17.15;68.54
57600;BME280;43426;43.594;24.334;2023-04-22T08:46:53;101118.69;;;17.62;65.13
57600;BME280;43426;43.594;24.334;2023-04-22T08:49:22;101126.09;;;18.02;61.82
57600;BME280;43426;43.594;24.334;2023-04-22T08:51:48;101107.56;;;18.17;60.10
57600;BME280;43426;43.594;24.334;2023-04-22T08:54:14;101117.66;;;18.24;59.29
57600;BME280;43426;43.594;24.334;2023-04-22T08:56:41;101125.38;;;18.47;57.10
57600;BME280;43426;43.594;24.334;2023-04-22T08:59:09;101119.84;;;18.67;59.07
57600;BME280;43426;43.594;24.334;2023-04-22T09:01:37;101114.97;;;18.76;58.16
57600;BME280;43426;43.594;24.334;2023-04-22T09:04:03;101115.22;;;19.19;58.42
57600;BME280;43426;43.594;24.334;2023-04-22T09:06:31;101107.28;;;19.43;56.78
57600;BME280;43426;43.594;24.334;2023-04-22T09:08:56;101123.22;;;19.78;54.77
57600;BME280;43426;43.594;24.334;2023-04-22T09:11:28;101101.28;;;20.10;55.22
57600;BME280;43426;43.594;24.334;2023-04-22T09:13:54;101120.22;;;20.37;51.02
57600;BME280;43426;43.594;24.334;2023-04-22T09:16:19;101116.00;;;20.34;52.69
57600;BME280;43426;43.594;24.334;2023-04-22T09:18:45;101125.06;;;20.35;49.89
57600;BME280;43426;43.594;24.334;2023-04-22T09:21:13;101123.19;;;20.35;49.19
57600;BME280;43426;43.594;24.334;2023-04-22T09:23:50;101110.06;;;20.37;49.85
57600;BME280;43426;43.594;24.334;2023-04-22T09:26:20;101102.84;;;20.62;48.52
57600;BME280;43426;43.594;24.334;2023-04-22T09:28:50;101123.22;;;21.21;48.93
57600;BME280;43426;43.594;24.334;2023-04-22T09:31:16;101117.97;;;21.01;49.91
57600;BME280;43426;43.594;24.334;2023-04-22T09:33:46;101115.28;;;20.83;47.32
57600;BME280;43426;43.594;24.334;2023-04-22T09:36:13;101111.00;;;20.31;46.99
57600;BME280;43426;43.594;24.334;2023-04-22T09:38:38;101095.66;;;19.80;48.46
57600;BME280;43426;43.594;24.334;2023-04-22T09:41:10;101126.97;;;19.59;46.40
57600;BME280;43426;43.594;24.334;2023-04-22T09:43:37;101119.72;;;19.71;47.56
57600;BME280;43426;43.594;24.334;2023-04-22T09:46:02;101099.69;;;19.45;48.63
57600;BME280;43426;43.594;24.334;2023-04-22T09:48:28;101115.22;;;19.19;50.22
57600;BME280;43426;43.594;24.334;2023-04-22T09:50:54;101109.66;;;19.65;53.14
57600;BME280;43426;43.594;24.334;2023-04-22T09:53:20;101094.69;;;19.67;49.55
57600;BME280;43426;43.594;24.334;2023-04-22T09:55:48;101088.22;;;20.12;48.16
57600;BME280;43426;43.594;24.334;2023-04-22T09:58:16;101079.09;;;20.74;48.63
57600;BME280;43426;43.594;24.334;2023-04-22T10:01:00;101093.38;;;21.55;46.69
57600;BME280;43426;43.594;24.334;2023-04-22T10:03:27;101090.78;;;21.84;45.20
57600;BME280;43426;43.594;24.334;2023-04-22T10:05:52;101083.50;;;22.25;41.23
57600;BME280;43426;43.594;24.334;2023-04-22T10:08:18;101071.81;;;21.94;39.71
57600;BME280;43426;43.594;24.334;2023-04-22T10:10:46;101087.66;;;21.69;41.76
57600;BME280;43426;43.594;24.334;2023-04-22T10:13:11;101078.81;;;21.67;43.42
57600;BME280;43426;43.594;24.334;2023-04-22T10:15:40;101059.00;;;21.65;40.79
57600;BME280;43426;43.594;24.334;2023-04-22T10:18:09;101072.59;;;21.59;41.52
57600;BME280;43426;43.594;24.334;2023-04-22T10:20:38;101067.97;;;21.72;43.76
57600;BME280;43426;43.594;24.334;2023-04-22T10:23:06;101071.75;;;22.30;42.64
57600;BME280;43426;43.594;24.334;2023-04-22T10:25:36;101032.56;;;22.23;42.61
57600;BME280;43426;43.594;24.334;2023-04-22T10:28:06;101050.91;;;22.99;42.24
57600;BME280;43426;43.594;24.334;2023-04-22T10:30:34;101054.06;;;22.90;38.48
57600;BME280;43426;43.594;24.334;2023-04-22T10:41:15;101048.28;;;22.63;42.22
57600;BME280;43426;43.594;24.334;2023-04-22T10:43:51;101046.78;;;23.13;40.31
57600;BME280;43426;43.594;24.334;2023-04-22T10:48:58;101019.72;;;21.88;39.74
57600;BME280;43426;43.594;24.334;2023-04-22T10:51:43;101022.59;;;21.81;40.41
57600;BME280;43426;43.594;24.334;2023-04-22T10:57:05;101040.69;;;20.74;42.88
57600;BME280;43426;43.594;24.334;2023-04-22T10:59:44;101041.31;;;20.39;42.33
57600;BME280;43426;43.594;24.334;2023-04-22T11:02:11;101027.78;;;20.44;44.50
57600;BME280;43426;43.594;24.334;2023-04-22T11:04:37;101008.00;;;20.91;43.26
57600;BME280;43426;43.594;24.334;2023-04-22T11:09:57;101018.00;;;20.85;42.71
57600;BME280;43426;43.594;24.334;2023-04-22T11:15:14;101025.09;;;20.74;43.75
57600;BME280;43426;43.594;24.334;2023-04-22T11:17:45;101022.25;;;20.81;46.14
57600;BME280;43426;43.594;24.334;2023-04-22T11:20:13;100996.28;;;21.38;42.51
57600;BME280;43426;43.594;24.334;2023-04-22T11:22:42;100992.94;;;21.95;40.94
57600;BME280;43426;43.594;24.334;2023-04-22T11:25:09;101014.91;;;22.19;39.42
57600;BME280;43426;43.594;24.334;2023-04-22T11:27:35;100997.03;;;21.69;40.31
57600;BME280;43426;43.594;24.334;2023-04-22T11:30:22;101015.25;;;20.67;41.21
57600;BME280;43426;43.594;24.334;2023-04-22T11:32:49;101024.88;;;20.39;41.68
57600;BME280;43426;43.594;24.334;2023-04-22T11:35:16;101017.91;;;20.24;42.28
57600;BME280;43426;43.594;24.334;2023-04-22T11:40:19;101002.88;;;20.46;44.09
57600;BME280;43426;43.594;24.334;2023-04-22T11:42:47;101011.72;;;20.78;42.06
57600;BME280;43426;43.594;24.334;2023-04-22T11:45:12;100998.34;;;20.70;43.45
57600;BME280;43426;43.594;24.334;2023-04-22T11:47:39;100995.44;;;20.83;43.77
57600;BME280;43426;43.594;24.334;2023-04-22T11:50:07;100987.47;;;21.48;41.46
57600;BME280;43426;43.594;24.334;2023-04-22T11:55:29;100986.78;;;21.64;42.41
57600;BME280;43426;43.594;24.334;2023-04-22T11:58:30;101005.44;;;21.32;42.86
57600;BME280;43426;43.594;24.334;2023-04-22T12:00:57;100983.88;;;20.63;42.40
57600;BME280;43426;43.594;24.334;2023-04-22T12:03:25;100976.91;;;20.30;43.34
57600;BME280;43426;43.594;24.334;2023-04-22T12:05:52;100986.09;;;20.05;43.80
57600;BME280;43426;43.594;24.334;2023-04-22T12:08:23;100979.81;;;19.98;45.02
57600;BME280;43426;43.594;24.334;2023-04-22T12:10:52;100978.31;;;20.20;46.68
57600;BME280;43426;43.594;24.334;2023-04-22T12:13:24;100985.16;;;20.60;45.55
57600;BME280;43426;43.594;24.334;2023-04-22T12:15:55;100992.88;;;20.70;43.96
57600;BME280;43426;43.594;24.334;2023-04-22T12:18:50;100990.06;;;20.58;43.93
57600;BME280;43426;43.594;24.334;2023-04-22T12:21:18;100995.34;;;20.41;43.86
57600;BME280;43426;43.594;24.334;2023-04-22T12:23:45;100994.44;;;20.10;47.06
57600;BME280;43426;43.594;24.334;2023-04-22T12:26:12;100993.91;;;20.01;45.82
57600;BME280;43426;43.594;24.334;2023-04-22T12:28:40;100996.88;;;20.18;45.91
57600;BME280;43426;43.594;24.334;2023-04-22T12:31:06;101007.91;;;19.68;47.84
57600;BME280;43426;43.594;24.334;2023-04-22T12:33:32;101005.59;;;18.82;47.96
57600;BME280;43426;43.594;24.334;2023-04-22T12:35:58;100986.69;;;18.35;50.69
57600;BME280;43426;43.594;24.334;2023-04-22T12:38:23;100995.66;;;17.77;54.03
57600;BME280;43426;43.594;24.334;2023-04-22T12:40:49;100987.69;;;16.95;59.86
57600;BME280;43426;43.594;24.334;2023-04-22T12:43:17;100985.16;;;16.19;64.58
57600;BME280;43426;43.594;24.334;2023-04-22T12:45:43;101015.00;;;15.77;67.98
57600;BME280;43426;43.594;24.334;2023-04-22T12:48:08;101029.00;;;15.45;70.65
57600;BME280;43426;43.594;24.334;2023-04-22T12:50:33;101028.63;;;15.05;69.75
57600;BME280;43426;43.594;24.334;2023-04-22T12:52:59;101040.25;;;14.99;68.54
57600;BME280;43426;43.594;24.334;2023-04-22T12:55:24;101031.63;;;14.59;69.91
57600;BME280;43426;43.594;24.334;2023-04-22T12:57:50;101027.84;;;14.90;67.66
57600;BME280;43426;43.594;24.334;2023-04-22T13:00:17;101023.75;;;15.01;72.72